sensor_id;sensor_type;location;lat;lon;timestamp;P1;durP1;ratioP1;P2;durP2;ratioP2
13204;SDS011;6667;52.634;9.226;2023-06-14T06:38:33;2.50;;;1.83;;
13204;SDS011;6667;52.634;9.226;2023-06-14T06:41:01;4.90;;;1.80;;
13204;SDS011;6667;52.634;9.226;2023-06-14T06:43:29;2.65;;;1.98;;
13204;SDS011;6667;52.634;9.226;2023-06-14T06:45:56;2.05;;;1.80;;
13204;SDS011;6667;52.634;9.226;2023-06-14T06:48:24;1.65;;;1.55;;
13204;SDS011;6667;52.634;9.226;2023-06-14T06:50:55;3.05;;;2.00;;
13204;SDS011;6667;52.634;9.226;2023-06-14T06:53:21;2.10;;;1.90;;
13204;SDS011;6667;52.634;9.226;2023-06-14T06:55:49;2.25;;;2.03;;
13204;SDS011;6667;52.634;9.226;2023-06-14T06:58:16;2.60;;;2.00;;
13204;SDS011;6667;52.634;9.226;2023-06-14T07:00:42;4.30;;;1.83;;
13204;SDS011;6667;52.634;9.226;2023-06-14T07:03:09;3.85;;;1.55;;
13204;SDS011;6667;52.634;9.226;2023-06-14T07:05:36;1.73;;;1.63;;
13204;SDS011;6667;52.634;9.226;2023-06-14T07:08:03;2.50;;;1.50;;
13204;SDS011;6667;52.634;9.226;2023-06-14T07:10:30;2.10;;;1.60;;
13204;SDS011;6667;52.634;9.226;2023-06-14T07:12:58;1.58;;;1.40;;
13204;SDS011;6667;52.634;9.226;2023-06-14T07:15:24;2.65;;;1.55;;
13204;SDS011;6667;52.634;9.226;2023-06-14T07:17:51;1.67;;;1.52;;
13204;SDS011;6667;52.634;9.226;2023-06-14T07:20:18;4.97;;;2.00;;
13204;SDS011;6667;52.634;9.226;2023-06-14T07:22:47;4.45;;;1.70;;
13204;SDS011;6667;52.634;9.226;2023-06-14T07:25:13;4.30;;;1.95;;
13204;SDS011;6667;52.634;9.226;2023-06-14T07:27:40;3.00;;;1.90;;
13204;SDS011;6667;52.634;9.226;2023-06-14T07:30:09;2.35;;;2.00;;
13204;SDS011;6667;52.634;9.226;2023-06-14T07:32:36;4.00;;;1.90;;
13204;SDS011;6667;52.634;9.226;2023-06-14T07:35:03;3.47;;;1.42;;
13204;SDS011;6667;52.634;9.226;2023-06-14T07:37:30;3.05;;;1.52;;
13204;SDS011;6667;52.634;9.226;2023-06-14T07:39:56;2.47;;;1.45;;
13204;SDS011;6667;52.634;9.226;2023-06-14T07:42:23;3.00;;;1.70;;
13204;SDS011;6667;52.634;9.226;2023-06-14T07:44:50;2.20;;;1.58;;
13204;SDS011;6667;52.634;9.226;2023-06-14T07:47:18;2.80;;;1.65;;
13204;SDS011;6667;52.634;9.226;2023-06-14T07:49:45;3.42;;;1.60;;
13204;SDS011;6667;52.634;9.226;2023-06-14T07:52:11;1.67;;;1.25;;
13204;SDS011;6667;52.634;9.226;2023-06-14T07:54:38;3.03;;;1.35;;
13204;SDS011;6667;52.634;9.226;2023-06-14T07:57:06;2.17;;;1.60;;
13204;SDS011;6667;52.634;9.226;2023-06-14T07:59:33;3.63;;;1.70;;
13204;SDS011;6667;52.634;9.226;2023-06-14T08:02:00;3.08;;;1.65;;
13204;SDS011;6667;52.634;9.226;2023-06-14T08:04:28;2.60;;;1.83;;
13204;SDS011;6667;52.634;9.226;2023-06-14T08:06:54;2.35;;;1.65;;
13204;SDS011;6667;52.634;9.226;2023-06-14T08:09:21;2.55;;;1.60;;
13204;SDS011;6667;52.634;9.226;2023-06-14T08:11:49;2.50;;;1.48;;
13204;SDS011;6667;52.634;9.226;2023-06-14T08:14:16;1.98;;;1.77;;
13204;SDS011;6667;52.634;9.226;2023-06-14T08:16:42;2.28;;;1.13;;
13204;SDS011;6667;52.634;9.226;2023-06-14T08:19:09;4.07;;;1.70;;
13204;SDS011;6667;52.634;9.226;2023-06-14T08:21:37;2.47;;;1.50;;
13204;SDS011;6667;52.634;9.226;2023-06-14T08:24:05;4.82;;;2.08;;
13204;SDS011;6667;52.634;9.226;2023-06-14T08:26:32;2.58;;;1.55;;
13204;SDS011;6667;52.634;9.226;2023-06-14T08:28:59;2.47;;;1.63;;
13204;SDS011;6667;52.634;9.226;2023-06-14T08:31:25;2.97;;;1.88;;
13204;SDS011;6667;52.634;9.226;2023-06-14T08:33:52;1.40;;;1.30;;
13204;SDS011;6667;52.634;9.226;2023-06-14T08:36:19;2.00;;;1.58;;
13204;SDS011;6667;52.634;9.226;2023-06-14T08:38:49;2.13;;;1.63;;
13204;SDS011;6667;52.634;9.226;2023-06-14T08:41:19;2.03;;;1.52;;
13204;SDS011;6667;52.634;9.226;2023-06-14T08:43:48;2.53;;;1.98;;
13204;SDS011;6667;52.634;9.226;2023-06-14T08:46:14;4.65;;;1.58;;
13204;SDS011;6667;52.634;9.226;2023-06-14T08:48:44;3.30;;;1.45;;
13204;SDS011;6667;52.634;9.226;2023-06-14T08:51:12;3.28;;;1.70;;
13204;SDS011;6667;52.634;9.226;2023-06-14T08:53:41;2.83;;;1.70;;
13204;SDS011;6667;52.634;9.226;2023-06-14T08:56:10;2.20;;;1.65;;
13204;SDS011;6667;52.634;9.226;2023-06-14T08:58:38;2.35;;;1.40;;
13204;SDS011;6667;52.634;9.226;2023-06-14T09:01:08;2.33;;;1.60;;
13204;SDS011;6667;52.634;9.226;2023-06-14T09:03:37;1.63;;;1.45;;
13204;SDS011;6667;52.634;9.226;2023-06-14T09:06:05;1.80;;;1.52;;
13204;SDS011;6667;52.634;9.226;2023-06-14T09:08:33;3.80;;;1.33;;
13204;SDS011;6667;52.634;9.226;2023-06-14T09:11:00;1.65;;;1.52;;
13204;SDS011;6667;52.634;9.226;2023-06-14T09:13:29;2.65;;;1.50;;
13204;SDS011;6667;52.634;9.226;2023-06-14T09:15:56;2.47;;;1.38;;
13204;SDS011;6667;52.634;9.226;2023-06-14T09:18:23;1.60;;;1.50;;
13204;SDS011;6667;52.634;9.226;2023-06-14T09:21:00;2.40;;;1.30;;
13204;SDS011;6667;52.634;9.226;2023-06-14T09:23:27;1.50;;;1.40;;
13204;SDS011;6667;52.634;9.226;2023-06-14T09:25:53;1.73;;;1.60;;
13204;SDS011;6667;52.634;9.226;2023-06-14T09:28:20;2.65;;;1.50;;
13204;SDS011;6667;52.634;9.226;2023-06-14T09:30:54;2.13;;;1.40;;
13204;SDS011;6667;52.634;9.226;2023-06-14T09:33:21;2.00;;;1.40;;
13204;SDS011;6667;52.634;9.226;2023-06-14T09:35:50;1.95;;;1.33;;
13204;SDS011;6667;52.634;9.226;2023-06-14T09:38:17;2.08;;;1.60;;
13204;SDS011;6667;52.634;9.226;2023-06-14T09:40:44;2.22;;;1.75;;
13204;SDS011;6667;52.634;9.226;2023-06-14T09:43:11;4.63;;;1.92;;
13204;SDS011;6667;52.634;9.226;2023-06-14T09:45:38;3.92;;;1.33;;
13204;SDS011;6667;52.634;9.226;2023-06-14T09:48:07;2.40;;;1.50;;
13204;SDS011;6667;52.634;9.226;2023-06-14T09:50:34;1.98;;;1.33;;
13204;SDS011;6667;52.634;9.226;2023-06-14T09:53:02;2.92;;;1.70;;
13204;SDS011;6667;52.634;9.226;2023-06-14T09:55:31;5.00;;;1.40;;
13204;SDS011;6667;52.634;9.226;2023-06-14T09:58:02;3.60;;;2.05;;
13204;SDS011;6667;52.634;9.226;2023-06-14T10:00:31;1.50;;;1.40;;
13204;SDS011;6667;52.634;9.226;2023-06-14T10:03:00;4.97;;;1.33;;
13204;SDS011;6667;52.634;9.226;2023-06-14T10:05:33;2.10;;;1.42;;
13204;SDS011;6667;52.634;9.226;2023-06-14T10:08:04;1.80;;;1.70;;
13204;SDS011;6667;52.634;9.226;2023-06-14T10:10:34;2.58;;;1.70;;
13204;SDS011;6667;52.634;9.226;2023-06-14T10:13:01;2.92;;;1.63;;
13204;SDS011;6667;52.634;9.226;2023-06-14T10:15:28;1.65;;;1.55;;
13204;SDS011;6667;52.634;9.226;2023-06-14T10:18:01;2.90;;;1.65;;
13204;SDS011;6667;52.634;9.226;2023-06-14T10:20:41;5.20;;;1.67;;
13204;SDS011;6667;52.634;9.226;2023-06-14T10:23:18;4.40;;;1.90;;
13204;SDS011;6667;52.634;9.226;2023-06-14T10:25:49;2.72;;;1.60;;
13204;SDS011;6667;52.634;9.226;2023-06-14T10:28:16;2.65;;;1.92;;
13204;SDS011;6667;52.634;9.226;2023-06-14T10:31:01;3.30;;;1.70;;
13204;SDS011;6667;52.634;9.226;2023-06-14T10:33:29;1.83;;;1.73;;
13204;SDS011;6667;52.634;9.226;2023-06-14T10:36:07;4.38;;;2.30;;
13204;SDS011;6667;52.634;9.226;2023-06-14T10:38:36;2.17;;;1.63;;
13204;SDS011;6667;52.634;9.226;2023-06-14T10:41:04;2.25;;;1.95;;
13204;SDS011;6667;52.634;9.226;2023-06-14T10:43:31;3.63;;;2.00;;
13204;SDS011;6667;52.634;9.226;2023-06-14T10:46:16;2.22;;;2.03;;
13204;SDS011;6667;52.634;9.226;2023-06-14T10:48:46;2.42;;;1.77;;
13204;SDS011;6667;52.634;9.226;2023-06-14T10:51:18;2.45;;;2.00;;
13204;SDS011;6667;52.634;9.226;2023-06-14T10:53:46;1.92;;;1.77;;
13204;SDS011;6667;52.634;9.226;2023-06-14T10:56:23;2.08;;;1.88;;
13204;SDS011;6667;52.634;9.226;2023-06-14T10:58:53;2.10;;;1.77;;
13204;SDS011;6667;52.634;9.226;2023-06-14T11:01:23;3.17;;;2.25;;
13204;SDS011;6667;52.634;9.226;2023-06-14T11:04:06;2.10;;;1.90;;
13204;SDS011;6667;52.634;9.226;2023-06-14T11:06:43;2.08;;;1.65;;
13204;SDS011;6667;52.634;9.226;2023-06-14T11:09:33;3.13;;;1.83;;
13204;SDS011;6667;52.634;9.226;2023-06-14T11:12:15;2.60;;;1.70;;
13204;SDS011;6667;52.634;9.226;2023-06-14T11:14:45;2.92;;;2.30;;
13204;SDS011;6667;52.634;9.226;2023-06-14T11:17:12;2.92;;;1.90;;
13204;SDS011;6667;52.634;9.226;2023-06-14T11:19:39;2.08;;;1.85;;
13204;SDS011;6667;52.634;9.226;2023-06-14T11:22:07;2.13;;;1.92;;
13204;SDS011;6667;52.634;9.226;2023-06-14T11:24:34;3.03;;;2.05;;
13204;SDS011;6667;52.634;9.226;2023-06-14T11:27:00;3.40;;;2.03;;
13204;SDS011;6667;52.634;9.226;2023-06-14T11:29:28;2.80;;;2.10;;
13204;SDS011;6667;52.634;9.226;2023-06-14T11:31:55;2.60;;;2.15;;
13204;SDS011;6667;52.634;9.226;2023-06-14T11:34:22;3.80;;;2.33;;
13204;SDS011;6667;52.634;9.226;2023-06-14T11:36:48;5.68;;;2.20;;
13204;SDS011;6667;52.634;9.226;2023-06-14T11:39:16;2.40;;;2.20;;
13204;SDS011;6667;52.634;9.226;2023-06-14T11:41:44;3.42;;;2.20;;
13204;SDS011;6667;52.634;9.226;2023-06-14T11:44:11;5.45;;;2.35;;
13204;SDS011;6667;52.634;9.226;2023-06-14T11:46:38;4.78;;;2.45;;
13204;SDS011;6667;52.634;9.226;2023-06-14T11:49:06;6.05;;;1.98;;
13204;SDS011;6667;52.634;9.226;2023-06-14T11:51:34;4.95;;;1.88;;
13204;SDS011;6667;52.634;9.226;2023-06-14T11:54:01;3.08;;;2.13;;
13204;SDS011;6667;52.634;9.226;2023-06-14T11:56:30;2.40;;;2.17;;
13204;SDS011;6667;52.634;9.226;2023-06-14T11:58:58;4.82;;;2.55;;
13204;SDS011;6667;52.634;9.226;2023-06-14T12:01:25;2.50;;;2.22;;
13204;SDS011;6667;52.634;9.226;2023-06-14T12:03:52;4.53;;;2.25;;
13204;SDS011;6667;52.634;9.226;2023-06-14T12:06:25;4.43;;;2.00;;
13204;SDS011;6667;52.634;9.226;2023-06-14T12:08:55;2.50;;;2.28;;
13204;SDS011;6667;52.634;9.226;2023-06-14T12:11:22;5.10;;;2.47;;
13204;SDS011;6667;52.634;9.226;2023-06-14T12:13:50;3.58;;;2.47;;
13204;SDS011;6667;52.634;9.226;2023-06-14T12:16:16;5.18;;;2.50;;
13204;SDS011;6667;52.634;9.226;2023-06-14T12:18:43;6.28;;;3.20;;
13204;SDS011;6667;52.634;9.226;2023-06-14T12:21:10;10.82;;;2.53;;
13204;SDS011;6667;52.634;9.226;2023-06-14T12:23:44;4.28;;;2.58;;
13204;SDS011;6667;52.634;9.226;2023-06-14T12:26:14;3.22;;;2.60;;
13204;SDS011;6667;52.634;9.226;2023-06-14T12:28:42;5.70;;;2.63;;
13204;SDS011;6667;52.634;9.226;2023-06-14T12:31:10;5.13;;;2.33;;
13204;SDS011;6667;52.634;9.226;2023-06-14T12:33:38;3.40;;;2.10;;
13204;SDS011;6667;52.634;9.226;2023-06-14T12:36:06;2.72;;;2.22;;
13204;SDS011;6667;52.634;9.226;2023-06-14T12:38:33;3.08;;;2.28;;
13204;SDS011;6667;52.634;9.226;2023-06-14T12:41:00;3.30;;;2.67;;
13204;SDS011;6667;52.634;9.226;2023-06-14T12:43:27;4.82;;;2.50;;
13204;SDS011;6667;52.634;9.226;2023-06-14T12:45:54;5.38;;;2.58;;
13204;SDS011;6667;52.634;9.226;2023-06-14T12:48:22;5.95;;;2.78;;
13204;SDS011;6667;52.634;9.226;2023-06-14T12:50:48;2.40;;;2.20;;
13204;SDS011;6667;52.634;9.226;2023-06-14T12:53:16;3.35;;;2.55;;
13204;SDS011;6667;52.634;9.226;2023-06-14T12:55:45;5.40;;;2.97;;
13204;SDS011;6667;52.634;9.226;2023-06-14T12:58:13;4.07;;;2.25;;
13204;SDS011;6667;52.634;9.226;2023-06-14T13:00:42;2.67;;;2.20;;
13204;SDS011;6667;52.634;9.226;2023-06-14T13:03:13;6.43;;;2.65;;
13204;SDS011;6667;52.634;9.226;2023-06-14T13:05:45;2.63;;;2.42;;
13204;SDS011;6667;52.634;9.226;2023-06-14T13:08:13;3.58;;;2.53;;
13204;SDS011;6667;52.634;9.226;2023-06-14T13:10:45;3.58;;;2.67;;
13204;SDS011;6667;52.634;9.226;2023-06-14T13:13:12;3.88;;;2.60;;
13204;SDS011;6667;52.634;9.226;2023-06-14T13:15:40;5.43;;;2.42;;
13204;SDS011;6667;52.634;9.226;2023-06-14T13:18:09;4.65;;;2.92;;
13204;SDS011;6667;52.634;9.226;2023-06-14T13:20:45;5.45;;;2.90;;
13204;SDS011;6667;52.634;9.226;2023-06-14T13:23:16;4.03;;;2.58;;
13204;SDS011;6667;52.634;9.226;2023-06-14T13:25:44;3.67;;;2.47;;
13204;SDS011;6667;52.634;9.226;2023-06-14T13:28:16;3.85;;;2.58;;
13204;SDS011;6667;52.634;9.226;2023-06-14T13:30:46;5.38;;;2.70;;
13204;SDS011;6667;52.634;9.226;2023-06-14T13:33:14;3.50;;;2.50;;
13204;SDS011;6667;52.634;9.226;2023-06-14T13:35:43;2.08;;;1.95;;
13204;SDS011;6667;52.634;9.226;2023-06-14T13:38:16;6.07;;;2.60;;
13204;SDS011;6667;52.634;9.226;2023-06-14T13:40:44;4.93;;;2.70;;
13204;SDS011;6667;52.634;9.226;2023-06-14T13:43:13;6.35;;;2.53;;
13204;SDS011;6667;52.634;9.226;2023-06-14T13:45:41;7.47;;;2.63;;
13204;SDS011;6667;52.634;9.226;2023-06-14T13:48:18;6.95;;;3.47;;
13204;SDS011;6667;52.634;9.226;2023-06-14T13:50:47;4.70;;;2.50;;
13204;SDS011;6667;52.634;9.226;2023-06-14T13:53:17;6.55;;;2.90;;
13204;SDS011;6667;52.634;9.226;2023-06-14T13:55:46;3.25;;;2.45;;
13204;SDS011;6667;52.634;9.226;2023-06-14T13:58:14;4.03;;;2.30;;
13204;SDS011;6667;52.634;9.226;2023-06-14T14:00:45;4.45;;;2.67;;
13204;SDS011;6667;52.634;9.226;2023-06-14T14:03:16;6.90;;;2.78;;
13204;SDS011;6667;52.634;9.226;2023-06-14T14:05:45;2.95;;;2.25;;
13204;SDS011;6667;52.634;9.226;2023-06-14T14:08:13;4.05;;;2.50;;
13204;SDS011;6667;52.634;9.226;2023-06-14T14:10:57;4.22;;;2.70;;
13204;SDS011;6667;52.634;9.226;2023-06-14T14:13:26;9.32;;;2.97;;
13204;SDS011;6667;52.634;9.226;2023-06-14T14:16:04;4.28;;;2.45;;
13204;SDS011;6667;52.634;9.226;2023-06-14T14:18:50;4.57;;;2.30;;
13204;SDS011;6667;52.634;9.226;2023-06-14T14:21:27;4.38;;;2.60;;
13204;SDS011;6667;52.634;9.226;2023-06-14T14:24:34;2.72;;;2.35;;
13204;SDS011;6667;52.634;9.226;2023-06-14T14:30:34;2.60;;;2.40;;
13204;SDS011;6667;52.634;9.226;2023-06-14T14:33:09;5.75;;;2.58;;
13204;SDS011;6667;52.634;9.226;2023-06-14T14:35:41;13.57;;;2.72;;
13204;SDS011;6667;52.634;9.226;2023-06-14T14:38:23;3.55;;;2.60;;
13204;SDS011;6667;52.634;9.226;2023-06-14T14:40:52;5.82;;;3.22;;
13204;SDS011;6667;52.634;9.226;2023-06-14T14:46:38;4.40;;;2.60;;
13204;SDS011;6667;52.634;9.226;2023-06-14T14:49:12;5.40;;;2.92;;
13204;SDS011;6667;52.634;9.226;2023-06-14T14:51:40;2.92;;;2.65;;
13204;SDS011;6667;52.634;9.226;2023-06-14T14:54:08;6.45;;;2.80;;
13204;SDS011;6667;52.634;9.226;2023-06-14T14:56:47;4.80;;;2.40;;
13204;SDS011;6667;52.634;9.226;2023-06-14T14:59:21;6.53;;;3.13;;
13204;SDS011;6667;52.634;9.226;2023-06-14T15:05:29;7.80;;;2.70;;
13204;SDS011;6667;52.634;9.226;2023-06-14T15:08:49;4.22;;;2.95;;
13204;SDS011;6667;52.634;9.226;2023-06-14T15:11:20;3.53;;;2.88;;
13204;SDS011;6667;52.634;9.226;2023-06-14T15:13:52;4.25;;;2.75;;
13204;SDS011;6667;52.634;9.226;2023-06-14T15:16:33;4.78;;;2.70;;
13204;SDS011;6667;52.634;9.226;2023-06-14T15:19:21;5.63;;;2.78;;
13204;SDS011;6667;52.634;9.226;2023-06-14T15:21:55;4.22;;;2.63;;
13204;SDS011;6667;52.634;9.226;2023-06-14T15:27:47;4.15;;;2.60;;
13204;SDS011;6667;52.634;9.226;2023-06-14T15:30:18;3.70;;;2.75;;
13204;SDS011;6667;52.634;9.226;2023-06-14T15:32:46;5.10;;;2.80;;
13204;SDS011;6667;52.634;9.226;2023-06-14T15:35:16;4.63;;;2.67;;
13204;SDS011;6667;52.634;9.226;2023-06-14T15:38:17;6.88;;;2.30;;
13204;SDS011;6667;52.634;9.226;2023-06-14T15:40:51;4.82;;;2.92;;
13204;SDS011;6667;52.634;9.226;2023-06-14T15:43:20;5.43;;;2.65;;
13204;SDS011;6667;52.634;9.226;2023-06-14T15:45:50;3.47;;;2.55;;
13204;SDS011;6667;52.634;9.226;2023-06-14T15:48:18;3.95;;;2.60;;
13204;SDS011;6667;52.634;9.226;2023-06-14T15:51:02;5.43;;;2.90;;
13204;SDS011;6667;52.634;9.226;2023-06-14T15:53:31;6.20;;;2.78;;
13204;SDS011;6667;52.634;9.226;2023-06-14T15:55:59;3.30;;;2.25;;
13204;SDS011;6667;52.634;9.226;2023-06-14T15:58:56;9.25;;;3.15;;
13204;SDS011;6667;52.634;9.226;2023-06-14T16:01:37;3.97;;;2.67;;
13204;SDS011;6667;52.634;9.226;2023-06-14T16:04:06;2.80;;;2.40;;
13204;SDS011;6667;52.634;9.226;2023-06-14T16:06:48;3.90;;;2.35;;
13204;SDS011;6667;52.634;9.226;2023-06-14T16:09:16;6.25;;;3.08;;
13204;SDS011;6667;52.634;9.226;2023-06-14T16:11:44;15.45;;;3.22;;
13204;SDS011;6667;52.634;9.226;2023-06-14T16:14:12;4.28;;;2.45;;
13204;SDS011;6667;52.634;9.226;2023-06-14T16:16:45;4.00;;;2.67;;
13204;SDS011;6667;52.634;9.226;2023-06-14T16:19:12;5.07;;;2.80;;
13204;SDS011;6667;52.634;9.226;2023-06-14T16:21:39;6.22;;;3.05;;
13204;SDS011;6667;52.634;9.226;2023-06-14T16:24:07;5.25;;;2.53;;
13204;SDS011;6667;52.634;9.226;2023-06-14T16:26:39;4.95;;;2.10;;
13204;SDS011;6667;52.634;9.226;2023-06-14T16:29:07;4.20;;;2.88;;
13204;SDS011;6667;52.634;9.226;2023-06-14T16:31:35;4.78;;;2.40;;
13204;SDS011;6667;52.634;9.226;2023-06-14T16:34:04;3.50;;;2.63;;
13204;SDS011;6667;52.634;9.226;2023-06-14T16:36:36;7.25;;;2.75;;
13204;SDS011;6667;52.634;9.226;2023-06-14T16:39:04;4.05;;;2.50;;
13204;SDS011;6667;52.634;9.226;2023-06-14T16:41:32;4.20;;;2.30;;
13204;SDS011;6667;52.634;9.226;2023-06-14T16:44:00;4.15;;;2.65;;
13204;SDS011;6667;52.634;9.226;2023-06-14T16:46:30;3.10;;;2.53;;
13204;SDS011;6667;52.634;9.226;2023-06-14T16:48:59;7.80;;;2.65;;
13204;SDS011;6667;52.634;9.226;2023-06-14T16:51:29;5.53;;;2.45;;
13204;SDS011;6667;52.634;9.226;2023-06-14T16:53:56;6.65;;;2.25;;
13204;SDS011;6667;52.634;9.226;2023-06-14T16:56:24;5.07;;;2.72;;
13204;SDS011;6667;52.634;9.226;2023-06-14T16:58:52;2.40;;;2.05;;
13204;SDS011;6667;52.634;9.226;2023-06-14T17:01:20;4.75;;;2.33;;
13204;SDS011;6667;52.634;9.226;2023-06-14T17:03:48;6.40;;;2.78;;
13204;SDS011;6667;52.634;9.226;2023-06-14T17:06:16;4.43;;;2.50;;
13204;SDS011;6667;52.634;9.226;2023-06-14T17:08:47;3.78;;;2.60;;
13204;SDS011;6667;52.634;9.226;2023-06-14T17:11:15;7.95;;;2.38;;
13204;SDS011;6667;52.634;9.226;2023-06-14T17:13:43;5.28;;;2.60;;
13204;SDS011;6667;52.634;9.226;2023-06-14T17:16:11;4.57;;;2.67;;
13204;SDS011;6667;52.634;9.226;2023-06-14T17:18:40;3.53;;;2.67;;
13204;SDS011;6667;52.634;9.226;2023-06-14T17:21:08;7.10;;;2.78;;
13204;SDS011;6667;52.634;9.226;2023-06-14T17:23:38;3.88;;;2.70;;
13204;SDS011;6667;52.634;9.226;2023-06-14T17:26:08;4.32;;;2.50;;
13204;SDS011;6667;52.634;9.226;2023-06-14T17:28:57;3.17;;;2.83;;
13204;SDS011;6667;52.634;9.226;2023-06-14T17:31:47;7.18;;;3.10;;
13204;SDS011;6667;52.634;9.226;2023-06-14T17:34:15;5.43;;;2.63;;
13204;SDS011;6667;52.634;9.226;2023-06-14T17:36:43;3.90;;;2.35;;
13204;SDS011;6667;52.634;9.226;2023-06-14T17:39:12;7.15;;;3.05;;
13204;SDS011;6667;52.634;9.226;2023-06-14T17:41:41;4.57;;;2.83;;
13204;SDS011;6667;52.634;9.226;2023-06-14T17:44:09;5.63;;;2.45;;
13204;SDS011;6667;52.634;9.226;2023-06-14T17:46:38;4.85;;;3.13;;
13204;SDS011;6667;52.634;9.226;2023-06-14T17:49:06;3.90;;;2.50;;
13204;SDS011;6667;52.634;9.226;2023-06-14T17:51:34;3.92;;;2.83;;
13204;SDS011;6667;52.634;9.226;2023-06-14T17:54:02;7.47;;;2.45;;
13204;SDS011;6667;52.634;9.226;2023-06-14T17:56:29;4.65;;;2.63;;
13204;SDS011;6667;52.634;9.226;2023-06-14T17:59:00;8.35;;;2.55;;
13204;SDS011;6667;52.634;9.226;2023-06-14T18:01:28;5.47;;;2.33;;
13204;SDS011;6667;52.634;9.226;2023-06-14T18:03:55;5.82;;;2.88;;
13204;SDS011;6667;52.634;9.226;2023-06-14T18:06:23;5.60;;;2.80;;
13204;SDS011;6667;52.634;9.226;2023-06-14T18:08:50;14.07;;;3.10;;
13204;SDS011;6667;52.634;9.226;2023-06-14T18:11:17;3.60;;;2.47;;
13204;SDS011;6667;52.634;9.226;2023-06-14T18:13:46;8.88;;;2.92;;
13204;SDS011;6667;52.634;9.226;2023-06-14T18:16:14;5.07;;;2.97;;
13204;SDS011;6667;52.634;9.226;2023-06-14T18:18:44;8.15;;;2.90;;
13204;SDS011;6667;52.634;9.226;2023-06-14T18:21:13;10.95;;;3.40;;
13204;SDS011;6667;52.634;9.226;2023-06-14T18:23:42;7.00;;;2.83;;
13204;SDS011;6667;52.634;9.226;2023-06-14T18:26:11;5.28;;;2.53;;
13204;SDS011;6667;52.634;9.226;2023-06-14T18:28:38;5.95;;;2.72;;
13204;SDS011;6667;52.634;9.226;2023-06-14T18:31:05;7.25;;;2.35;;
13204;SDS011;6667;52.634;9.226;2023-06-14T18:33:33;6.38;;;2.55;;
13204;SDS011;6667;52.634;9.226;2023-06-14T18:36:00;7.03;;;2.55;;
13204;SDS011;6667;52.634;9.226;2023-06-14T18:38:28;8.43;;;3.30;;
13204;SDS011;6667;52.634;9.226;2023-06-14T18:40:56;7.35;;;3.10;;
13204;SDS011;6667;52.634;9.226;2023-06-14T18:43:29;9.95;;;2.60;;
13204;SDS011;6667;52.634;9.226;2023-06-14T18:45:57;5.38;;;2.97;;
13204;SDS011;6667;52.634;9.226;2023-06-14T18:48:26;7.32;;;3.05;;
13204;SDS011;6667;52.634;9.226;2023-06-14T18:50:55;8.48;;;2.80;;
13204;SDS011;6667;52.634;9.226;2023-06-14T18:53:23;8.35;;;2.85;;
13204;SDS011;6667;52.634;9.226;2023-06-14T18:55:52;5.80;;;2.80;;
13204;SDS011;6667;52.634;9.226;2023-06-14T18:58:20;8.75;;;3.67;;
13204;SDS011;6667;52.634;9.226;2023-06-14T19:00:48;2.53;;;2.33;;
13204;SDS011;6667;52.634;9.226;2023-06-14T19:03:15;5.80;;;3.38;;
13204;SDS011;6667;52.634;9.226;2023-06-14T19:05:42;7.07;;;3.10;;
13204;SDS011;6667;52.634;9.226;2023-06-14T19:08:10;5.30;;;2.83;;
13204;SDS011;6667;52.634;9.226;2023-06-14T19:10:37;5.45;;;3.15;;
13204;SDS011;6667;52.634;9.226;2023-06-14T19:13:05;5.82;;;2.88;;
13204;SDS011;6667;52.634;9.226;2023-06-14T19:15:36;6.03;;;2.92;;
13204;SDS011;6667;52.634;9.226;2023-06-14T19:18:02;6.45;;;2.67;;
13204;SDS011;6667;52.634;9.226;2023-06-14T19:20:31;5.05;;;2.60;;
13204;SDS011;6667;52.634;9.226;2023-06-14T19:22:59;7.20;;;2.80;;
13204;SDS011;6667;52.634;9.226;2023-06-14T19:25:30;8.93;;;3.08;;
13204;SDS011;6667;52.634;9.226;2023-06-14T19:27:57;6.70;;;2.72;;
13204;SDS011;6667;52.634;9.226;2023-06-14T19:30:25;5.25;;;3.05;;
13204;SDS011;6667;52.634;9.226;2023-06-14T19:32:53;5.88;;;3.10;;
13204;SDS011;6667;52.634;9.226;2023-06-14T19:35:20;8.85;;;3.17;;
13204;SDS011;6667;52.634;9.226;2023-06-14T19:37:47;8.40;;;2.97;;
13204;SDS011;6667;52.634;9.226;2023-06-14T19:40:14;5.10;;;3.00;;
13204;SDS011;6667;52.634;9.226;2023-06-14T19:42:44;7.25;;;3.28;;
13204;SDS011;6667;52.634;9.226;2023-06-14T19:45:11;7.03;;;2.92;;
13204;SDS011;6667;52.634;9.226;2023-06-14T19:47:38;8.63;;;3.08;;
13204;SDS011;6667;52.634;9.226;2023-06-14T19:50:07;8.18;;;3.15;;
13204;SDS011;6667;52.634;9.226;2023-06-14T19:52:34;7.53;;;3.38;;
13204;SDS011;6667;52.634;9.226;2023-06-14T19:55:02;8.07;;;3.13;;
13204;SDS011;6667;52.634;9.226;2023-06-14T19:57:29;2.55;;;2.35;;
13204;SDS011;6667;52.634;9.226;2023-06-14T19:59:58;7.63;;;3.08;;
13204;SDS011;6667;52.634;9.226;2023-06-14T20:02:29;5.47;;;3.20;;
13204;SDS011;6667;52.634;9.226;2023-06-14T20:04:56;4.97;;;3.15;;
13204;SDS011;6667;52.634;9.226;2023-06-14T20:07:24;6.22;;;3.28;;
13204;SDS011;6667;52.634;9.226;2023-06-14T20:09:52;9.95;;;3.50;;
13204;SDS011;6667;52.634;9.226;2023-06-14T20:12:20;7.20;;;3.10;;
13204;SDS011;6667;52.634;9.226;2023-06-14T20:14:49;7.63;;;3.20;;
13204;SDS011;6667;52.634;9.226;2023-06-14T20:17:19;7.97;;;3.22;;
13204;SDS011;6667;52.634;9.226;2023-06-14T20:19:48;5.80;;;3.35;;
13204;SDS011;6667;52.634;9.226;2023-06-14T20:22:17;6.32;;;2.85;;
13204;SDS011;6667;52.634;9.226;2023-06-14T20:24:45;8.20;;;3.40;;
13204;SDS011;6667;52.634;9.226;2023-06-14T20:27:13;6.88;;;2.92;;
13204;SDS011;6667;52.634;9.226;2023-06-14T20:29:40;5.55;;;2.65;;
13204;SDS011;6667;52.634;9.226;2023-06-14T20:32:08;4.47;;;3.10;;
13204;SDS011;6667;52.634;9.226;2023-06-14T20:34:37;6.30;;;2.83;;
13204;SDS011;6667;52.634;9.226;2023-06-14T20:37:05;9.57;;;3.28;;
13204;SDS011;6667;52.634;9.226;2023-06-14T20:39:32;6.03;;;3.17;;
13204;SDS011;6667;52.634;9.226;2023-06-14T20:41:59;7.32;;;3.03;;
13204;SDS011;6667;52.634;9.226;2023-06-14T20:44:27;10.98;;;2.80;;
13204;SDS011;6667;52.634;9.226;2023-06-14T20:46:55;6.78;;;2.78;;
13204;SDS011;6667;52.634;9.226;2023-06-14T20:49:23;5.95;;;2.50;;
13204;SDS011;6667;52.634;9.226;2023-06-14T20:51:54;5.20;;;2.90;;
13204;SDS011;6667;52.634;9.226;2023-06-14T20:54:22;7.70;;;3.42;;
13204;SDS011;6667;52.634;9.226;2023-06-14T20:56:50;5.90;;;2.53;;
13204;SDS011;6667;52.634;9.226;2023-06-14T20:59:18;8.13;;;3.08;;
13204;SDS011;6667;52.634;9.226;2023-06-14T21:01:45;4.57;;;3.10;;
13204;SDS011;6667;52.634;9.226;2023-06-14T21:04:13;7.55;;;2.97;;
13204;SDS011;6667;52.634;9.226;2023-06-14T21:06:41;7.30;;;2.80;;
13204;SDS011;6667;52.634;9.226;2023-06-14T21:09:10;5.28;;;2.55;;
13204;SDS011;6667;52.634;9.226;2023-06-14T21:11:38;6.70;;;3.15;;
13204;SDS011;6667;52.634;9.226;2023-06-14T21:14:05;7.07;;;2.40;;
13204;SDS011;6667;52.634;9.226;2023-06-14T21:16:34;5.82;;;2.88;;
13204;SDS011;6667;52.634;9.226;2023-06-14T21:19:04;7.20;;;3.10;;
13204;SDS011;6667;52.634;9.226;2023-06-14T21:21:31;6.22;;;2.78;;
13204;SDS011;6667;52.634;9.226;2023-06-14T21:23:58;3.22;;;2.83;;
13204;SDS011;6667;52.634;9.226;2023-06-14T21:26:26;5.47;;;2.63;;
13204;SDS011;6667;52.634;9.226;2023-06-14T21:28:54;5.30;;;2.70;;
13204;SDS011;6667;52.634;9.226;2023-06-14T21:31:22;3.80;;;2.60;;
13204;SDS011;6667;52.634;9.226;2023-06-14T21:33:50;6.85;;;3.00;;
13204;SDS011;6667;52.634;9.226;2023-06-14T21:36:18;3.78;;;2.97;;
13204;SDS011;6667;52.634;9.226;2023-06-14T21:38:48;4.50;;;2.47;;
13204;SDS011;6667;52.634;9.226;2023-06-14T21:41:19;4.05;;;2.50;;
13204;SDS011;6667;52.634;9.226;2023-06-14T21:43:51;5.28;;;2.50;;
13204;SDS011;6667;52.634;9.226;2023-06-14T21:46:21;6.80;;;2.28;;
13204;SDS011;6667;52.634;9.226;2023-06-14T21:48:50;3.25;;;2.30;;
13204;SDS011;6667;52.634;9.226;2023-06-14T21:51:18;4.20;;;2.50;;
13204;SDS011;6667;52.634;9.226;2023-06-14T21:53:46;2.47;;;2.10;;
13204;SDS011;6667;52.634;9.226;2023-06-14T21:56:16;4.30;;;2.38;;
13204;SDS011;6667;52.634;9.226;2023-06-14T21:58:45;2.40;;;2.10;;
13204;SDS011;6667;52.634;9.226;2023-06-14T22:01:15;3.85;;;2.72;;
13204;SDS011;6667;52.634;9.226;2023-06-14T22:03:42;2.95;;;2.15;;
13204;SDS011;6667;52.634;9.226;2023-06-14T22:06:10;4.32;;;2.47;;